Time;durP1;ratioP1;P1;durP2;ratioP2;P2;SDS_P1;SDS_P2;PMS_P1;PMS_P2;Temp;Humidity;BMP_temperature;BMP_pressure;BME280_temperature;BME280_humidity;BME280_pressure;Samples;Min_cycle;Max_cycle;Signal;HPM_P1;HPM_P2
2023/06/20 00:01:57;;;;;;;;;;;;;;;16.31;72.93;100106.48;129924;1298;22551;-82
2023/06/20 00:04:57;;;;;;;;;;;;;;;16.31;73.10;100100.97;129994;1291;22534;-83
2023/06/20 00:07:57;;;;;;;;;;;;;;;16.30;73.19;100104.30;130200;1292;27663;-82
2023/06/20 00:10:58;;;;;;;;;;;;;;;16.30;73.29;100102.20;130097;1291;24240;-83
2023/06/20 00:13:58;;;;;;;;;;;;;;;16.29;73.47;100103.39;129946;1294;22525;-83
2023/06/20 00:16:59;;;;;;;;;;;;;;;16.29;73.52;100100.43;130082;1293;24450;-83
2023/06/20 00:20:00;;;;;;;;;;;;;;;16.27;73.64;100094.88;130055;1294;23915;-82
2023/06/20 00:23:02;;;;;;;;;;;;;;;16.23;73.60;100092.02;130028;1293;26554;-83
2023/06/20 00:26:02;;;;;;;;;;;;;;;16.19;73.64;100091.77;130061;1295;23171;-82
2023/06/20 00:29:03;;;;;;;;;;;;;;;16.12;73.69;100089.39;130103;1298;25236;-83
2023/06/20 00:32:05;;;;;;;;;;;;;;;16.08;73.75;100085.86;130207;1291;22627;-83
2023/06/20 00:35:05;;;;;;;;;;;;;;;16.05;73.81;100087.00;130267;1291;24272;-83
2023/06/20 00:38:06;;;;;;;;;;;;;;;16.04;73.90;100090.88;130191;1294;22556;-82
2023/06/20 00:41:07;;;;;;;;;;;;;;;15.98;73.98;100086.09;130328;1294;24072;-82
2023/06/20 00:44:07;;;;;;;;;;;;;;;15.94;74.26;100084.84;129925;1298;25274;-83
2023/06/20 00:47:08;;;;;;;;;;;;;;;15.87;74.30;100084.83;130199;1297;22541;-80
2023/06/20 00:50:09;;;;;;;;;;;;;;;15.76;74.30;100081.30;130336;1298;25377;-84
2023/06/20 00:53:09;;;;;;;;;;;;;;;15.64;74.31;100083.95;130074;1295;24492;-83
2023/06/20 00:56:12;;;;;;;;;;;;;;;15.56;74.55;100084.21;130084;1289;24761;-82
2023/06/20 00:59:12;;;;;;;;;;;;;;;15.53;74.59;100083.09;130147;1292;22564;-81
2023/06/20 01:02:16;;;;;;;;;;;;;;;15.44;74.66;100083.17;130261;1297;25548;-82
2023/06/20 01:05:17;;;;;;;;;;;;;;;15.35;74.64;100083.87;130164;1298;22589;-81
2023/06/20 01:08:17;;;;;;;;;;;;;;;15.23;74.85;100081.00;130195;1292;24277;-81
2023/06/20 01:11:29;;;;;;;;;;;;;;;15.18;75.17;100079.89;130058;1289;23404;-81
2023/06/20 01:14:36;;;;;;;;;;;;;;;15.13;75.29;100078.05;130159;1282;22646;-83
2023/06/20 01:17:47;;;;;;;;;;;;;;;15.10;75.42;100075.41;130172;1292;26521;-83
2023/06/20 01:20:50;;;;;;;;;;;;;;;15.10;75.68;100077.27;130042;1291;25300;-81
2023/06/20 01:23:52;;;;;;;;;;;;;;;15.08;75.96;100076.00;130302;1298;22664;-82
2023/06/20 01:26:57;;;;;;;;;;;;;;;15.08;76.00;100078.44;130201;1289;25244;-81
2023/06/20 01:29:58;;;;;;;;;;;;;;;15.07;76.01;100079.59;130187;1298;22536;-78
2023/06/20 01:33:02;;;;;;;;;;;;;;;15.06;76.07;100078.79;130155;1289;25585;-81
2023/06/20 01:36:05;;;;;;;;;;;;;;;15.06;76.24;100081.48;130065;1290;22607;-83
2023/06/20 01:39:08;;;;;;;;;;;;;;;15.04;76.31;100079.56;130061;1292;22634;-80
2023/06/20 01:42:10;;;;;;;;;;;;;;;15.04;76.40;100074.42;130086;1293;22933;-84
2023/06/20 01:45:12;;;;;;;;;;;;;;;15.04;76.49;100070.19;130111;1295;22644;-80
2023/06/20 01:48:13;;;;;;;;;;;;;;;15.00;76.50;100074.88;130010;1298;25417;-83
2023/06/20 01:51:15;;;;;;;;;;;;;;;14.93;76.45;100074.61;130057;1290;22731;-81
2023/06/20 01:54:16;;;;;;;;;;;;;;;14.87;76.47;100073.09;130123;1294;23321;-82
2023/06/20 01:57:17;;;;;;;;;;;;;;;14.85;76.62;100070.65;130094;1288;25418;-80
2023/06/20 02:00:19;;;;;;;;;;;;;;;14.85;76.75;100068.55;130183;1289;22545;-82
2023/06/20 02:03:21;;;;;;;;;;;;;;;14.86;76.87;100067.28;129972;1291;22590;-81
2023/06/20 02:06:22;;;;;;;;;;;;;;;14.88;76.86;100070.02;130094;1292;25355;-81
2023/06/20 02:09:25;;;;;;;;;;;;;;;14.91;76.93;100067.84;130105;1298;22537;-83
2023/06/20 02:12:26;;;;;;;;;;;;;;;14.94;76.77;100068.98;130152;1295;24231;-84
2023/06/20 02:15:28;;;;;;;;;;;;;;;14.95;76.72;100075.63;130441;1298;22533;-83
2023/06/20 02:18:31;;;;;;;;;;;;;;;14.94;76.70;100070.42;130393;1298;24682;-80
2023/06/20 02:21:35;;;;;;;;;;;;;;;14.92;76.71;100068.41;130229;1291;22541;-82
2023/06/20 02:24:37;;;;;;;;;;;;;;;14.93;76.82;100071.32;130171;1292;22575;-83
2023/06/20 02:27:39;;;;;;;;;;;;;;;14.95;76.81;100067.20;130107;1295;22545;-84
2023/06/20 02:30:41;;;;;;;;;;;;;;;14.96;76.91;100066.32;130217;1289;23603;-82
2023/06/20 02:33:44;;;;;;;;;;;;;;;15.00;77.01;100062.85;130042;1298;22615;-82
2023/06/20 02:36:45;;;;;;;;;;;;;;;15.05;77.01;100061.07;130145;1298;22537;-82
2023/06/20 02:39:46;;;;;;;;;;;;;;;15.09;76.88;100063.31;130414;1298;22534;-83
2023/06/20 02:42:46;;;;;;;;;;;;;;;15.10;76.83;100060.48;130035;1298;23912;-82
2023/06/20 02:45:50;;;;;;;;;;;;;;;15.12;76.95;100063.27;130093;1298;23911;-82
2023/06/20 02:48:54;;;;;;;;;;;;;;;15.14;77.01;100063.34;130033;1298;25226;-81
2023/06/20 02:52:01;;;;;;;;;;;;;;;15.14;76.86;100062.63;130094;1289;25309;-81
2023/06/20 02:55:01;;;;;;;;;;;;;;;15.15;76.96;100067.58;130180;1295;25419;-82
2023/06/20 02:58:06;;;;;;;;;;;;;;;15.18;76.95;100065.45;130284;1298;22935;-82
2023/06/20 03:01:07;;;;;;;;;;;;;;;15.23;77.22;100065.48;130427;1298;23295;-83
2023/06/20 03:04:08;;;;;;;;;;;;;;;15.30;77.01;100062.34;130051;1292;25331;-81
2023/06/20 03:07:09;;;;;;;;;;;;;;;15.33;76.97;100063.73;130144;1289;25277;-82
2023/06/20 03:10:10;;;;;;;;;;;;;;;15.38;77.03;100062.70;130066;1295;22722;-81
2023/06/20 03:13:14;;;;;;;;;;;;;;;15.48;77.15;100065.71;130201;1299;22555;-80
2023/06/20 03:16:16;;;;;;;;;;;;;;;15.59;76.97;100065.27;130491;1298;22767;-82
2023/06/20 03:19:16;;;;;;;;;;;;;;;15.69;76.87;100064.33;130344;1289;22554;-83
2023/06/20 03:22:17;;;;;;;;;;;;;;;15.82;76.84;100069.96;130088;1292;22646;-83
2023/06/20 03:25:18;;;;;;;;;;;;;;;15.99;76.64;100077.00;130119;1290;26510;-85
2023/06/20 03:28:19;;;;;;;;;;;;;;;16.16;76.60;100076.02;130061;1298;25245;-84
2023/06/20 03:31:23;;;;;;;;;;;;;;;16.31;76.25;100076.13;129966;1297;22532;-83
2023/06/20 03:34:23;;;;;;;;;;;;;;;16.44;75.98;100079.10;130325;1296;26513;-84
2023/06/20 03:37:24;;;;;;;;;;;;;;;16.59;75.82;100081.79;130205;1292;24237;-80
2023/06/20 03:40:24;;;;;;;;;;;;;;;16.75;75.72;100084.71;130341;1292;22549;-82
2023/06/20 03:43:25;;;;;;;;;;;;;;;16.96;75.55;100085.34;130108;1298;22574;-83
2023/06/20 03:46:25;;;;;;;;;;;;;;;17.21;75.23;100086.00;130204;1295;22551;-81
2023/06/20 03:49:26;;;;;;;;;;;;;;;17.44;74.85;100089.16;130187;1286;22619;-81
2023/06/20 03:52:27;;;;;;;;;;;;;;;17.63;74.40;100093.71;130179;1295;22665;-81
2023/06/20 03:55:28;;;;;;;;;;;;;;;17.79;73.91;100098.79;130262;1295;22668;-83
2023/06/20 03:58:28;;;;;;;;;;;;;;;17.91;73.63;100101.73;130159;1296;22757;-82
2023/06/20 04:01:29;;;;;;;;;;;;;;;18.12;73.45;100103.27;130150;1291;25187;-82
2023/06/20 04:04:29;;;;;;;;;;;;;;;18.40;73.23;100105.02;130074;1298;22585;-82
2023/06/20 04:07:31;;;;;;;;;;;;;;;18.74;73.00;100107.59;130067;1294;22537;-82
2023/06/20 04:10:32;;;;;;;;;;;;;;;19.10;72.47;100104.23;130133;1298;22531;-83
2023/06/20 04:13:32;;;;;;;;;;;;;;;19.41;71.79;100104.28;130143;1298;24224;-83
2023/06/20 04:16:32;;;;;;;;;;;;;;;19.67;71.33;100099.99;130209;1290;25300;-82
2023/06/20 04:19:33;;;;;;;;;;;;;;;19.93;70.56;100100.05;130306;1292;22573;-79
2023/06/20 04:22:33;;;;;;;;;;;;;;;20.15;70.00;100099.01;130111;1295;22537;-82
2023/06/20 04:25:35;;;;;;;;;;;;;;;20.32;69.57;100095.23;130139;1298;22792;-83
2023/06/20 04:28:35;;;;;;;;;;;;;;;20.57;69.35;100094.64;130149;1294;22529;-83
2023/06/20 04:31:36;;;;;;;;;;;;;;;20.76;68.42;100091.97;130308;1294;22651;-82
2023/06/20 04:34:36;;;;;;;;;;;;;;;20.83;68.20;100089.65;131006;1294;22492;-83
2023/06/20 04:37:38;;;;;;;;;;;;;;;21.01;67.94;100093.11;130244;1292;24411;-83
2023/06/20 04:40:39;;;;;;;;;;;;;;;21.29;67.66;100091.69;130232;1295;22603;-83
2023/06/20 04:43:44;;;;;;;;;;;;;;;21.59;67.17;100090.57;130168;1295;22581;-84
2023/06/20 04:46:45;;;;;;;;;;;;;;;22.03;66.96;100084.55;130263;1299;24201;-84
2023/06/20 04:49:46;;;;;;;;;;;;;;;22.51;66.50;100083.05;130190;1297;24302;-84
2023/06/20 04:52:47;;;;;;;;;;;;;;;22.96;65.58;100078.82;130178;1295;24046;-81
2023/06/20 04:55:48;;;;;;;;;;;;;;;23.27;64.83;100081.90;131068;1291;25314;-82
2023/06/20 04:58:49;;;;;;;;;;;;;;;23.44;63.88;100079.50;130114;1291;22535;-86
2023/06/20 05:01:51;;;;;;;;;;;;;;;23.70;63.46;100081.02;130051;1292;22557;-81
2023/06/20 05:04:52;;;;;;;;;;;;;;;24.03;63.03;100077.29;130271;1289;25262;-83
2023/06/20 05:07:52;;;;;;;;;;;;;;;24.34;62.48;100079.67;130731;1292;22533;-80
2023/06/20 05:10:53;;;;;;;;;;;;;;;24.55;61.66;100080.80;130358;1292;22538;-85
2023/06/20 05:13:53;;;;;;;;;;;;;;;24.90;61.52;100081.84;130518;1298;22545;-82
2023/06/20 05:16:54;;;;;;;;;;;;;;;25.28;60.80;100082.56;130672;1298;23441;-81
2023/06/20 05:19:54;;;;;;;;;;;;;;;25.42;59.74;100081.91;130181;1297;22589;-84
2023/06/20 05:22:55;;;;;;;;;;;;;;;25.70;59.32;100083.79;130310;1295;25847;-85
2023/06/20 05:25:55;;;;;;;;;;;;;;;25.78;58.03;100083.16;130495;1298;23090;-86
2023/06/20 05:28:56;;;;;;;;;;;;;;;25.72;57.20;100080.55;130377;1294;23774;-83
2023/06/20 05:31:56;;;;;;;;;;;;;;;25.73;57.00;100085.81;130353;1298;22969;-85
2023/06/20 05:34:57;;;;;;;;;;;;;;;25.76;56.64;100084.31;130469;1299;24263;-83
2023/06/20 05:37:59;;;;;;;;;;;;;;;25.56;56.49;100088.16;130331;1298;24284;-84
2023/06/20 05:41:00;;;;;;;;;;;;;;;25.27;56.46;100087.02;130185;1293;22793;-83
2023/06/20 05:44:00;;;;;;;;;;;;;;;25.00;56.12;100094.50;130107;1295;25378;-85
2023/06/20 05:47:01;;;;;;;;;;;;;;;24.56;56.35;100094.41;129926;1289;191838;-85
2023/06/20 05:50:01;;;;;;;;;;;;;;;24.21;57.16;100098.17;130094;1295;23429;-83
2023/06/20 05:53:02;;;;;;;;;;;;;;;24.19;57.67;100095.86;130102;1296;24291;-84
2023/06/20 05:56:02;;;;;;;;;;;;;;;24.27;58.01;100102.78;130096;1295;24680;-81
2023/06/20 05:59:04;;;;;;;;;;;;;;;24.51;58.09;100104.75;130023;1298;24326;-81
2023/06/20 06:02:05;;;;;;;;;;;;;;;24.59;57.45;100108.17;130330;1295;22579;-82
2023/06/20 06:05:06;;;;;;;;;;;;;;;24.53;57.51;100108.83;130163;1298;22534;-79
2023/06/20 06:08:06;;;;;;;;;;;;;;;24.76;57.59;100106.02;130268;1298;25546;-81
2023/06/20 06:11:07;;;;;;;;;;;;;;;25.14;57.51;100111.02;130190;1293;22653;-82
2023/06/20 06:14:08;;;;;;;;;;;;;;;25.46;56.91;100118.70;130131;1295;26634;-81
2023/06/20 06:17:08;;;;;;;;;;;;;;;25.75;56.62;100122.23;130203;1290;22529;-81
2023/06/20 06:20:12;;;;;;;;;;;;;;;26.17;56.14;100128.38;130401;1297;23048;-83
2023/06/20 06:23:12;;;;;;;;;;;;;;;26.50;55.45;100127.39;130261;1285;25496;-81
2023/06/20 06:26:13;;;;;;;;;;;;;;;26.56;54.91;100128.98;130178;1298;22642;-84
2023/06/20 06:29:15;;;;;;;;;;;;;;;26.70;54.89;100132.23;130157;1289;22653;-81
2023/06/20 06:32:19;;;;;;;;;;;;;;;27.08;54.58;100131.77;130082;1295;22545;-83
2023/06/20 06:35:20;;;;;;;;;;;;;;;27.47;53.84;100130.36;130108;1294;22639;-81
2023/06/20 06:38:22;;;;;;;;;;;;;;;27.95;53.23;100133.24;130209;1292;25407;-88
2023/06/20 06:41:22;;;;;;;;;;;;;;;28.43;52.83;100134.68;130293;1295;25316;-82
2023/06/20 06:44:23;;;;;;;;;;;;;;;28.81;52.41;100133.98;130273;1291;26513;-82
2023/06/20 06:47:23;;;;;;;;;;;;;;;29.18;51.59;100135.98;130290;1295;23877;-84
2023/06/20 06:50:23;;;;;;;;;;;;;;;29.34;50.85;100139.14;130409;1289;22534;-82
2023/06/20 06:53:24;;;;;;;;;;;;;;;29.73;50.40;100139.05;130672;1298;22959;-81
2023/06/20 06:56:25;;;;;;;;;;;;;;;30.09;49.83;100140.27;130797;1298;25428;-83
2023/06/20 06:59:25;;;;;;;;;;;;;;;30.32;48.96;100140.25;130665;1298;22547;-83
2023/06/20 07:02:27;;;;;;;;;;;;;;;30.20;48.60;100136.48;130419;1289;22697;-83
2023/06/20 07:05:27;;;;;;;;;;;;;;;30.44;48.66;100139.46;130359;1298;25335;-82
2023/06/20 07:08:43;;;;;;;;;;;;;;;30.59;48.29;100137.57;130010;1289;22672;-86
2023/06/20 07:11:43;;;;;;;;;;;;;;;30.85;48.09;100139.02;130337;1295;23897;-82
2023/06/20 07:14:44;;;;;;;;;;;;;;;31.03;47.59;100142.19;130184;1298;24342;-84
2023/06/20 07:17:44;;;;;;;;;;;;;;;31.31;47.09;100148.40;130106;1297;22551;-83
2023/06/20 07:20:45;;;;;;;;;;;;;;;31.44;46.40;100144.44;130073;1298;25345;-86
2023/06/20 07:23:45;;;;;;;;;;;;;;;31.52;46.10;100145.54;130007;1292;22626;-86
2023/06/20 07:26:46;;;;;;;;;;;;;;;31.84;45.68;100141.89;130089;1298;22550;-81
2023/06/20 07:29:46;;;;;;;;;;;;;;;32.12;45.59;100140.56;130108;1295;22655;-86
2023/06/20 07:32:48;;;;;;;;;;;;;;;32.23;44.89;100138.23;130238;1297;25457;-83
2023/06/20 07:35:49;;;;;;;;;;;;;;;32.37;44.14;100136.45;130374;1293;22540;-82
2023/06/20 07:38:49;;;;;;;;;;;;;;;32.61;43.19;100129.11;130377;1296;22581;-83
2023/06/20 07:41:50;;;;;;;;;;;;;;;32.71;42.54;100125.62;130436;1298;24298;-84
2023/06/20 07:44:50;;;;;;;;;;;;;;;32.90;42.36;100124.23;130291;1290;22544;-85
2023/06/20 07:47:51;;;;;;;;;;;;;;;33.13;41.59;100120.67;130007;1295;22545;-82
2023/06/20 07:50:51;;;;;;;;;;;;;;;33.11;41.18;100119.23;130206;1297;24714;-83
2023/06/20 07:53:51;;;;;;;;;;;;;;;33.04;41.02;100120.14;130123;1296;24324;-83
2023/06/20 07:56:52;;;;;;;;;;;;;;;33.16;40.54;100119.84;130167;1298;22687;-83
2023/06/20 07:59:53;;;;;;;;;;;;;;;33.26;40.24;100119.05;130299;1298;22535;-85
2023/06/20 08:02:53;;;;;;;;;;;;;;;33.46;39.91;100119.19;130117;1288;25489;-83
2023/06/20 08:05:54;;;;;;;;;;;;;;;33.68;39.51;100114.43;130092;1292;24428;-84
2023/06/20 08:08:54;;;;;;;;;;;;;;;33.53;38.98;100116.23;130149;1292;22538;-84
2023/06/20 08:11:55;;;;;;;;;;;;;;;33.48;39.36;100117.86;130204;1298;24288;-86
2023/06/20 08:14:55;;;;;;;;;;;;;;;33.62;38.79;100115.61;130081;1297;22538;-85
2023/06/20 08:17:55;;;;;;;;;;;;;;;33.48;38.49;100113.48;130087;1289;25360;-80
2023/06/20 08:20:56;;;;;;;;;;;;;;;33.36;38.78;100113.27;130830;1289;25491;-83
2023/06/20 08:23:57;;;;;;;;;;;;;;;33.27;38.25;100117.33;130267;1293;22530;-83
2023/06/20 08:26:57;;;;;;;;;;;;;;;33.25;38.70;100113.69;130181;1293;22538;-85
2023/06/20 08:29:57;;;;;;;;;;;;;;;33.02;37.85;100112.78;130332;1288;24266;-83
2023/06/20 08:32:58;;;;;;;;;;;;;;;32.52;38.10;100107.49;130138;1298;22659;-82
2023/06/20 08:35:59;;;;;;;;;;;;;;;32.59;38.22;100107.88;130179;1291;22541;-84
2023/06/20 08:39:00;;;;;;;;;;;;;;;32.72;38.04;100103.14;130106;1293;22554;-83
2023/06/20 08:42:01;;;;;;;;;;;;;;;32.95;37.99;100102.86;130158;1298;25265;-84
2023/06/20 08:45:02;;;;;;;;;;;;;;;32.89;37.44;100102.50;130150;1295;22499;-82
2023/06/20 08:48:03;;;;;;;;;;;;;;;32.73;37.61;100100.30;130156;1298;22505;-81
2023/06/20 08:51:03;;;;;;;;;;;;;;;32.62;37.37;100102.20;130189;1289;24227;-83
2023/06/20 08:54:06;;;;;;;;;;;;;;;32.53;36.92;100106.25;130118;1290;22524;-86
2023/06/20 08:57:07;;;;;;;;;;;;;;;32.65;37.05;100109.62;130217;1298;25360;-81
2023/06/20 09:00:10;;;;;;;;;;;;;;;32.92;36.76;100108.37;130615;1288;25259;-84
2023/06/20 09:03:10;;;;;;;;;;;;;;;33.14;36.85;100106.86;130279;1291;22862;-84
2023/06/20 09:06:11;;;;;;;;;;;;;;;32.93;36.68;100105.59;130216;1292;22553;-83
2023/06/20 09:09:16;;;;;;;;;;;;;;;32.71;36.59;100102.00;130137;1289;22531;-84
2023/06/20 09:12:17;;;;;;;;;;;;;;;32.69;36.71;100101.88;130105;1289;23096;-82
2023/06/20 09:15:19;;;;;;;;;;;;;;;32.90;36.58;100104.27;130551;1295;23886;-84
2023/06/20 09:18:19;;;;;;;;;;;;;;;33.08;36.55;100103.65;130233;1289;25186;-85
2023/06/20 09:21:20;;;;;;;;;;;;;;;33.23;36.30;100104.17;130192;1289;22541;-83
2023/06/20 09:24:20;;;;;;;;;;;;;;;33.47;36.09;100098.72;130222;1289;27498;-87
2023/06/20 09:27:21;;;;;;;;;;;;;;;33.77;36.09;100092.30;130320;1290;22550;-85
2023/06/20 09:30:22;;;;;;;;;;;;;;;33.92;35.86;100096.09;130127;1289;23433;-83
2023/06/20 09:33:24;;;;;;;;;;;;;;;34.15;35.78;100092.55;130316;1294;25472;-84
2023/06/20 09:36:26;;;;;;;;;;;;;;;34.37;34.37;100093.74;130245;1289;23930;-82
2023/06/20 09:39:31;;;;;;;;;;;;;;;34.43;34.57;100094.54;130109;1290;22540;-86
2023/06/20 09:42:32;;;;;;;;;;;;;;;34.38;34.08;100093.14;130558;1298;26538;-85
2023/06/20 09:45:32;;;;;;;;;;;;;;;34.31;33.24;100093.02;130500;1297;24238;-85
2023/06/20 09:48:34;;;;;;;;;;;;;;;33.93;32.66;100091.38;130158;1289;25374;-85
2023/06/20 09:51:37;;;;;;;;;;;;;;;33.95;32.92;100088.16;130481;1295;25398;-83
2023/06/20 09:54:50;;;;;;;;;;;;;;;33.97;32.52;100087.52;130366;1289;22627;-83
2023/06/20 09:57:53;;;;;;;;;;;;;;;33.79;32.87;100086.02;130198;1298;23910;-87
2023/06/20 10:00:55;;;;;;;;;;;;;;;33.70;33.60;100082.06;130145;1295;24978;-83
2023/06/20 10:03:56;;;;;;;;;;;;;;;33.76;33.55;100081.17;130158;1298;22794;-83
2023/06/20 10:06:57;;;;;;;;;;;;;;;33.97;33.76;100083.15;130224;1295;22537;-85
2023/06/20 10:09:58;;;;;;;;;;;;;;;34.25;34.10;100082.05;130081;1298;23868;-84
2023/06/20 10:12:58;;;;;;;;;;;;;;;34.59;33.69;100075.79;130226;1298;25359;-85
2023/06/20 10:15:59;;;;;;;;;;;;;;;34.65;31.92;100076.40;130541;1292;22542;-85
2023/06/20 10:19:14;;;;;;;;;;;;;;;34.52;32.16;100077.30;130391;1298;23879;-84
2023/06/20 10:22:31;;;;;;;;;;;;;;;34.74;32.18;100071.50;130397;1289;25433;-85
2023/06/20 10:25:32;;;;;;;;;;;;;;;34.71;32.15;100073.43;130475;1298;22552;-83
2023/06/20 10:28:35;;;;;;;;;;;;;;;34.67;32.06;100073.64;130057;1289;24363;-86
2023/06/20 10:31:55;;;;;;;;;;;;;;;34.58;31.79;100068.13;130511;1298;22542;-86
2023/06/20 10:35:03;;;;;;;;;;;;;;;34.69;31.77;100066.55;130491;1289;22551;-84
2023/06/20 10:38:08;;;;;;;;;;;;;;;34.75;32.08;100066.73;130222;1289;24296;-82
2023/06/20 10:41:21;;;;;;;;;;;;;;;34.95;31.49;100069.96;130237;1298;22540;-82
2023/06/20 10:44:29;;;;;;;;;;;;;;;34.98;30.79;100063.16;130100;1290;25379;-85
2023/06/20 10:47:29;;;;;;;;;;;;;;;34.66;30.25;100063.27;130238;1293;22592;-83
2023/06/20 10:50:30;;;;;;;;;;;;;;;34.25;30.94;100063.15;130121;1298;22669;-82
2023/06/20 10:53:31;;;;;;;;;;;;;;;34.02;31.06;100057.48;130197;1283;22664;-84
2023/06/20 10:56:34;;;;;;;;;;;;;;;34.01;31.77;100056.77;130849;1282;22672;-84
2023/06/20 10:59:34;;;;;;;;;;;;;;;33.93;31.83;100048.77;130553;1297;22558;-84
2023/06/20 11:02:35;;;;;;;;;;;;;;;33.89;31.28;100047.80;130278;1296;22557;-83
2023/06/20 11:05:35;;;;;;;;;;;;;;;33.67;31.78;100042.78;130183;1298;22551;-82
2023/06/20 11:08:36;;;;;;;;;;;;;;;33.31;32.15;100045.27;130283;1295;24264;-83
2023/06/20 11:11:38;;;;;;;;;;;;;;;33.24;32.34;100044.12;130146;1295;25728;-86
2023/06/20 11:14:40;;;;;;;;;;;;;;;33.12;32.12;100047.94;130305;1288;22757;-85
2023/06/20 11:17:41;;;;;;;;;;;;;;;33.23;32.50;100049.20;130174;1289;23911;-82
2023/06/20 11:20:41;;;;;;;;;;;;;;;33.37;32.86;100052.13;130282;1288;25254;-85
2023/06/20 11:23:42;;;;;;;;;;;;;;;33.49;32.80;100048.70;130218;1297;23554;-82
2023/06/20 11:26:42;;;;;;;;;;;;;;;33.70;32.59;100047.54;130143;1292;23907;-84
2023/06/20 11:29:45;;;;;;;;;;;;;;;33.88;32.54;100044.42;130156;1290;24278;-83
2023/06/20 11:33:02;;;;;;;;;;;;;;;34.01;32.11;100043.58;130106;1298;22539;-87
2023/06/20 11:36:02;;;;;;;;;;;;;;;34.00;32.12;100042.22;130161;1288;22696;-81
2023/06/20 11:39:11;;;;;;;;;;;;;;;33.81;32.14;100033.82;130111;1298;25348;-84
2023/06/20 11:42:15;;;;;;;;;;;;;;;33.75;32.29;100031.80;130324;1298;25260;-85
2023/06/20 11:45:16;;;;;;;;;;;;;;;33.90;32.50;100032.02;130273;1298;24044;-84
2023/06/20 11:48:16;;;;;;;;;;;;;;;33.95;32.83;100032.25;130150;1294;23877;-85
2023/06/20 11:51:19;;;;;;;;;;;;;;;34.02;32.81;100029.73;130265;1291;22543;-82
2023/06/20 11:54:19;;;;;;;;;;;;;;;34.33;33.07;100024.06;130260;1291;23290;-84
2023/06/20 11:57:23;;;;;;;;;;;;;;;34.51;32.40;100022.79;130258;1289;22559;-83
2023/06/20 12:00:24;;;;;;;;;;;;;;;34.37;32.36;100019.52;130118;1294;22538;-81
2023/06/20 12:03:25;;;;;;;;;;;;;;;34.53;32.39;100015.88;130284;1291;22544;-82
2023/06/20 12:06:28;;;;;;;;;;;;;;;34.42;32.24;100016.84;130311;1288;22655;-84
2023/06/20 12:09:37;;;;;;;;;;;;;;;34.27;32.05;100016.83;130179;1289;22537;-84
2023/06/20 12:12:39;;;;;;;;;;;;;;;34.36;31.98;100016.51;130189;1295;24340;-81
2023/06/20 12:15:40;;;;;;;;;;;;;;;34.24;32.08;100016.45;130191;1295;22540;-84
2023/06/20 12:18:41;;;;;;;;;;;;;;;34.09;32.53;100009.29;130326;1291;22503;-82
2023/06/20 12:21:43;;;;;;;;;;;;;;;33.79;32.67;100013.61;130195;1289;22583;-85
2023/06/20 12:24:43;;;;;;;;;;;;;;;33.62;32.50;100014.49;130149;1293;24763;-82
2023/06/20 12:27:43;;;;;;;;;;;;;;;33.30;32.63;100015.34;130115;1298;22575;-80
2023/06/20 12:30:44;;;;;;;;;;;;;;;33.30;32.99;100007.91;130183;1288;25537;-82
2023/06/20 12:33:44;;;;;;;;;;;;;;;33.35;33.47;100006.00;130252;1291;22539;-84
2023/06/20 12:36:45;;;;;;;;;;;;;;;33.41;33.82;100004.02;130178;1295;22536;-82
2023/06/20 12:39:45;;;;;;;;;;;;;;;33.64;33.57;100001.29;130288;1294;25903;-82
2023/06/20 12:42:46;;;;;;;;;;;;;;;33.83;33.78;99994.70;130146;1298;22553;-80
2023/06/20 12:45:47;;;;;;;;;;;;;;;33.89;33.60;99993.41;130108;1291;22559;-84
2023/06/20 12:48:47;;;;;;;;;;;;;;;33.91;33.77;99990.35;130192;1292;22551;-82
2023/06/20 12:51:47;;;;;;;;;;;;;;;33.78;34.17;99991.80;130182;1289;24244;-83
2023/06/20 12:54:48;;;;;;;;;;;;;;;33.68;34.70;99992.85;130125;1288;22659;-84
2023/06/20 12:57:49;;;;;;;;;;;;;;;33.51;34.31;99990.80;130272;1297;25309;-83
2023/06/20 13:00:51;;;;;;;;;;;;;;;33.36;34.66;99993.10;130169;1294;22768;-83
2023/06/20 13:03:51;;;;;;;;;;;;;;;33.25;35.11;99989.69;130106;1291;25443;-81
2023/06/20 13:06:52;;;;;;;;;;;;;;;33.12;34.95;99991.42;130268;1294;22814;-83
2023/06/20 13:09:53;;;;;;;;;;;;;;;33.02;36.37;99991.37;130506;1288;22594;-86
2023/06/20 13:12:54;;;;;;;;;;;;;;;32.88;35.45;99990.59;130450;1291;24504;-84
2023/06/20 13:15:54;;;;;;;;;;;;;;;32.84;36.41;99987.95;130608;1291;22646;-83
2023/06/20 13:18:59;;;;;;;;;;;;;;;32.88;36.38;99990.10;130741;1288;22544;-82
2023/06/20 13:22:00;;;;;;;;;;;;;;;32.85;36.37;99989.86;130597;1291;22551;-81
2023/06/20 13:25:01;;;;;;;;;;;;;;;32.76;36.20;99990.94;130519;1293;22533;-82
2023/06/20 13:28:01;;;;;;;;;;;;;;;32.63;36.64;99997.19;130477;1288;22605;-83
2023/06/20 13:31:02;;;;;;;;;;;;;;;32.54;37.38;100000.33;130107;1288;22551;-84
2023/06/20 13:34:02;;;;;;;;;;;;;;;32.53;37.99;100002.46;130206;1289;23467;-85
2023/06/20 13:37:03;;;;;;;;;;;;;;;32.57;36.97;100006.41;130562;1298;22557;-83
2023/06/20 13:40:07;;;;;;;;;;;;;;;32.48;36.20;100005.27;130250;1297;22586;-83
2023/06/20 13:43:08;;;;;;;;;;;;;;;32.36;36.85;100006.73;130388;1294;22552;-82
2023/06/20 13:46:08;;;;;;;;;;;;;;;32.30;36.53;100006.94;130168;1289;25306;-82
2023/06/20 13:49:09;;;;;;;;;;;;;;;32.25;36.54;100005.23;130089;1292;22562;-86
2023/06/20 13:52:10;;;;;;;;;;;;;;;32.23;36.25;100001.36;130104;1294;22544;-84
2023/06/20 13:55:13;;;;;;;;;;;;;;;32.23;36.45;100001.52;130308;1298;22643;-84
2023/06/20 13:58:14;;;;;;;;;;;;;;;32.22;36.21;100006.34;130361;1288;25380;-84
2023/06/20 14:01:15;;;;;;;;;;;;;;;32.27;35.94;100006.46;130222;1289;22653;-83
2023/06/20 14:04:16;;;;;;;;;;;;;;;32.32;35.71;100006.61;130416;1288;23907;-82
2023/06/20 14:07:16;;;;;;;;;;;;;;;32.28;35.52;100005.56;130215;1288;22562;-82
2023/06/20 14:10:17;;;;;;;;;;;;;;;32.34;35.24;100005.23;130071;1297;24717;-85
2023/06/20 14:13:17;;;;;;;;;;;;;;;32.48;35.12;100004.91;130110;1294;24723;-82
2023/06/20 14:16:21;;;;;;;;;;;;;;;32.64;34.55;100002.72;130169;1289;22564;-82
2023/06/20 14:19:22;;;;;;;;;;;;;;;32.76;34.63;99998.08;130173;1299;22800;-85
2023/06/20 14:22:22;;;;;;;;;;;;;;;32.77;34.24;99995.92;130196;1298;22989;-85
2023/06/20 14:25:23;;;;;;;;;;;;;;;32.76;34.97;99993.82;130393;1289;22618;-85
2023/06/20 14:28:25;;;;;;;;;;;;;;;32.67;35.09;99990.55;130217;1298;22555;-82
2023/06/20 14:31:26;;;;;;;;;;;;;;;32.67;34.79;99987.52;130146;1288;22669;-86
2023/06/20 14:34:26;;;;;;;;;;;;;;;32.72;34.62;99985.47;130472;1298;22527;-79
2023/06/20 14:37:27;;;;;;;;;;;;;;;32.92;35.15;99990.38;130312;1289;22525;-82
2023/06/20 14:40:27;;;;;;;;;;;;;;;33.15;34.63;99992.55;130240;1293;24522;-85
2023/06/20 14:43:28;;;;;;;;;;;;;;;33.31;34.47;99988.22;130263;1289;24260;-83
2023/06/20 14:46:28;;;;;;;;;;;;;;;33.34;33.75;99989.05;130134;1291;22676;-85
2023/06/20 14:49:29;;;;;;;;;;;;;;;33.18;33.12;99988.61;130171;1293;25357;-85
2023/06/20 14:52:29;;;;;;;;;;;;;;;33.12;33.59;99987.79;130207;1288;23459;-83
2023/06/20 14:55:30;;;;;;;;;;;;;;;33.01;34.26;99991.14;130231;1291;22588;-84
2023/06/20 14:58:30;;;;;;;;;;;;;;;32.76;35.05;99984.90;130201;1290;25236;-84
2023/06/20 15:01:31;;;;;;;;;;;;;;;32.69;35.05;99981.04;130268;1288;22537;-84
2023/06/20 15:04:32;;;;;;;;;;;;;;;32.72;34.93;99981.95;130228;1289;24297;-84
2023/06/20 15:07:32;;;;;;;;;;;;;;;32.77;35.79;99979.13;130324;1288;22544;-83
2023/06/20 15:10:33;;;;;;;;;;;;;;;32.81;35.66;99976.42;130204;1289;22561;-84
2023/06/20 15:13:33;;;;;;;;;;;;;;;32.80;36.12;99977.10;130201;1294;23063;-88
2023/06/20 15:16:34;;;;;;;;;;;;;;;32.64;36.63;99975.91;130171;1290;22590;-85
2023/06/20 15:19:34;;;;;;;;;;;;;;;32.51;36.66;99982.67;130168;1289;23930;-81
2023/06/20 15:22:35;;;;;;;;;;;;;;;32.37;36.20;99982.16;130244;1294;22680;-83